Norfolk, Virginia
Traffic Map
Current Weather Conditions
Norfolk, Virginia
Clear
Clear
19°
Feels Like: 19°
Wind Chill: 19° Ceiling: Unl
Heat Index: 19° Visibility: 10mi
Dew Point: Wind: 14mph
Humidity: 47% Direction: 350° (N)
Pressure: 29.79in Gusts: 20mph
Raw Report DataKORF 211351Z AUTO 35012G17KT 10SM CLR 19/08 A2979 RMK AO2 SLP088 T01940078 TSNO
Traffic Incident Summary
Active as of:
Severity:
Category:
InformationThere was an issue retrieving the traffic information for this location. Please try a different location or try again shortly.
Advertisements
Track Severe Weather on mobile